sensor_id;sensor_type;location;lat;lon;timestamp;temperature;humidity
21033;DHT22;10675;47.976;7.824;2022-10-31T00:01:54;12.70;99.90
21033;DHT22;10675;47.976;7.824;2022-10-31T00:04:19;12.70;99.90
21033;DHT22;10675;47.976;7.824;2022-10-31T00:06:45;12.70;99.90
21033;DHT22;10675;47.976;7.824;2022-10-31T00:09:10;12.70;99.90
21033;DHT22;10675;47.976;7.824;2022-10-31T00:11:36;12.70;99.90
21033;DHT22;10675;47.976;7.824;2022-10-31T00:14:03;12.70;99.90
21033;DHT22;10675;47.976;7.824;2022-10-31T00:16:29;12.70;99.90
21033;DHT22;10675;47.976;7.824;2022-10-31T00:18:57;12.70;99.90
21033;DHT22;10675;47.976;7.824;2022-10-31T00:21:23;12.70;99.90
21033;DHT22;10675;47.976;7.824;2022-10-31T00:23:49;12.70;99.90
21033;DHT22;10675;47.976;7.824;2022-10-31T00:26:15;12.70;99.90
21033;DHT22;10675;47.976;7.824;2022-10-31T00:28:41;12.60;99.90
21033;DHT22;10675;47.976;7.824;2022-10-31T00:31:08;12.60;99.90
21033;DHT22;10675;47.976;7.824;2022-10-31T00:33:36;12.70;99.90
21033;DHT22;10675;47.976;7.824;2022-10-31T00:36:03;12.80;99.90
21033;DHT22;10675;47.976;7.824;2022-10-31T00:38:30;12.70;99.90
21033;DHT22;10675;47.976;7.824;2022-10-31T00:40:55;12.70;99.90
21033;DHT22;10675;47.976;7.824;2022-10-31T00:43:21;12.70;99.90
21033;DHT22;10675;47.976;7.824;2022-10-31T00:45:46;12.50;99.90
21033;DHT22;10675;47.976;7.824;2022-10-31T00:48:12;12.40;99.90
21033;DHT22;10675;47.976;7.824;2022-10-31T00:50:38;12.40;99.90
21033;DHT22;10675;47.976;7.824;2022-10-31T00:53:04;12.50;99.90
21033;DHT22;10675;47.976;7.824;2022-10-31T00:55:30;12.60;99.90
21033;DHT22;10675;47.976;7.824;2022-10-31T00:57:56;12.50;99.90
21033;DHT22;10675;47.976;7.824;2022-10-31T01:00:21;12.40;99.90
21033;DHT22;10675;47.976;7.824;2022-10-31T01:02:47;12.30;99.90
21033;DHT22;10675;47.976;7.824;2022-10-31T01:05:13;12.20;99.90
21033;DHT22;10675;47.976;7.824;2022-10-31T01:07:39;12.20;99.90
21033;DHT22;10675;47.976;7.824;2022-10-31T01:10:06;12.20;99.90
21033;DHT22;10675;47.976;7.824;2022-10-31T01:12:45;12.30;99.90
21033;DHT22;10675;47.976;7.824;2022-10-31T01:15:12;12.20;99.90
21033;DHT22;10675;47.976;7.824;2022-10-31T01:17:38;12.30;99.90
21033;DHT22;10675;47.976;7.824;2022-10-31T01:20:05;12.30;99.90
21033;DHT22;10675;47.976;7.824;2022-10-31T01:22:32;12.30;99.90
21033;DHT22;10675;47.976;7.824;2022-10-31T01:24:57;12.30;99.90
21033;DHT22;10675;47.976;7.824;2022-10-31T01:27:23;12.20;99.90
21033;DHT22;10675;47.976;7.824;2022-10-31T01:29:48;12.30;99.90
21033;DHT22;10675;47.976;7.824;2022-10-31T01:32:14;12.30;99.90
21033;DHT22;10675;47.976;7.824;2022-10-31T01:34:40;12.30;99.90
21033;DHT22;10675;47.976;7.824;2022-10-31T01:37:06;12.20;99.90
21033;DHT22;10675;47.976;7.824;2022-10-31T01:39:31;12.10;99.90
21033;DHT22;10675;47.976;7.824;2022-10-31T01:41:57;12.10;99.90
21033;DHT22;10675;47.976;7.824;2022-10-31T01:46:57;11.90;99.90
21033;DHT22;10675;47.976;7.824;2022-10-31T01:52:01;11.80;99.90
21033;DHT22;10675;47.976;7.824;2022-10-31T01:54:32;11.90;99.90
21033;DHT22;10675;47.976;7.824;2022-10-31T01:56:59;11.90;99.90
21033;DHT22;10675;47.976;7.824;2022-10-31T01:59:28;11.80;99.90
21033;DHT22;10675;47.976;7.824;2022-10-31T02:01:54;11.80;99.90
21033;DHT22;10675;47.976;7.824;2022-10-31T02:04:22;11.90;99.90
21033;DHT22;10675;47.976;7.824;2022-10-31T02:06:57;12.00;99.90
21033;DHT22;10675;47.976;7.824;2022-10-31T02:09:25;12.00;99.90
21033;DHT22;10675;47.976;7.824;2022-10-31T02:11:52;12.00;99.90
21033;DHT22;10675;47.976;7.824;2022-10-31T02:14:22;11.90;99.90
21033;DHT22;10675;47.976;7.824;2022-10-31T02:16:48;12.00;99.90
21033;DHT22;10675;47.976;7.824;2022-10-31T02:19:22;11.90;99.90
21033;DHT22;10675;47.976;7.824;2022-10-31T02:22:16;12.00;99.90
21033;DHT22;10675;47.976;7.824;2022-10-31T02:27:59;12.00;99.90
21033;DHT22;10675;47.976;7.824;2022-10-31T02:33:34;11.90;99.90
21033;DHT22;10675;47.976;7.824;2022-10-31T02:36:16;11.90;99.90
21033;DHT22;10675;47.976;7.824;2022-10-31T02:47:01;12.00;99.90
21033;DHT22;10675;47.976;7.824;2022-10-31T02:49:48;11.90;99.90
21033;DHT22;10675;47.976;7.824;2022-10-31T02:52:24;11.80;99.90
21033;DHT22;10675;47.976;7.824;2022-10-31T02:54:50;11.70;99.90
21033;DHT22;10675;47.976;7.824;2022-10-31T02:57:20;11.70;99.90
21033;DHT22;10675;47.976;7.824;2022-10-31T02:59:49;11.60;99.90
21033;DHT22;10675;47.976;7.824;2022-10-31T03:11:04;11.60;99.90
21033;DHT22;10675;47.976;7.824;2022-10-31T03:13:47;11.60;99.90
21033;DHT22;10675;47.976;7.824;2022-10-31T03:18:56;11.60;99.90
21033;DHT22;10675;47.976;7.824;2022-10-31T03:21:27;11.60;99.90
21033;DHT22;10675;47.976;7.824;2022-10-31T03:23:56;11.60;99.90
21033;DHT22;10675;47.976;7.824;2022-10-31T03:26:24;11.70;99.90
21033;DHT22;10675;47.976;7.824;2022-10-31T03:29:16;11.60;99.90
21033;DHT22;10675;47.976;7.824;2022-10-31T03:32:15;11.70;99.90
21033;DHT22;10675;47.976;7.824;2022-10-31T03:34:44;11.70;99.90
21033;DHT22;10675;47.976;7.824;2022-10-31T03:37:13;11.50;99.90
21033;DHT22;10675;47.976;7.824;2022-10-31T03:39:41;11.40;99.90
21033;DHT22;10675;47.976;7.824;2022-10-31T03:42:18;11.40;99.90
21033;DHT22;10675;47.976;7.824;2022-10-31T03:44:49;11.40;99.90
21033;DHT22;10675;47.976;7.824;2022-10-31T03:47:15;11.40;99.90
21033;DHT22;10675;47.976;7.824;2022-10-31T03:49:41;11.40;99.90
21033;DHT22;10675;47.976;7.824;2022-10-31T03:52:22;11.40;99.90
21033;DHT22;10675;47.976;7.824;2022-10-31T03:55:12;11.40;99.90
21033;DHT22;10675;47.976;7.824;2022-10-31T04:00:13;11.40;99.90
21033;DHT22;10675;47.976;7.824;2022-10-31T04:02:44;11.30;99.90
21033;DHT22;10675;47.976;7.824;2022-10-31T04:05:12;11.30;99.90
21033;DHT22;10675;47.976;7.824;2022-10-31T04:07:41;11.30;99.90
21033;DHT22;10675;47.976;7.824;2022-10-31T04:10:11;11.30;99.90
21033;DHT22;10675;47.976;7.824;2022-10-31T04:12:39;11.40;99.90
21033;DHT22;10675;47.976;7.824;2022-10-31T04:15:06;11.40;99.90
21033;DHT22;10675;47.976;7.824;2022-10-31T04:17:36;11.30;99.90
21033;DHT22;10675;47.976;7.824;2022-10-31T04:20:03;11.20;99.90
21033;DHT22;10675;47.976;7.824;2022-10-31T04:22:29;11.30;99.90
21033;DHT22;10675;47.976;7.824;2022-10-31T04:24:54;11.30;99.90
21033;DHT22;10675;47.976;7.824;2022-10-31T04:27:20;11.20;99.90
21033;DHT22;10675;47.976;7.824;2022-10-31T04:29:45;11.20;99.90
21033;DHT22;10675;47.976;7.824;2022-10-31T04:32:11;11.20;99.90
21033;DHT22;10675;47.976;7.824;2022-10-31T04:34:36;11.30;99.90
21033;DHT22;10675;47.976;7.824;2022-10-31T04:37:02;11.30;99.90
21033;DHT22;10675;47.976;7.824;2022-10-31T04:39:27;11.20;99.90
21033;DHT22;10675;47.976;7.824;2022-10-31T04:41:53;11.20;99.90
21033;DHT22;10675;47.976;7.824;2022-10-31T04:44:18;11.10;99.90
21033;DHT22;10675;47.976;7.824;2022-10-31T04:46:44;11.00;99.90
21033;DHT22;10675;47.976;7.824;2022-10-31T04:49:10;11.00;99.90
21033;DHT22;10675;47.976;7.824;2022-10-31T04:51:35;11.00;99.90
21033;DHT22;10675;47.976;7.824;2022-10-31T04:54:01;11.00;99.90
21033;DHT22;10675;47.976;7.824;2022-10-31T04:56:26;11.00;99.90
21033;DHT22;10675;47.976;7.824;2022-10-31T04:58:55;11.10;99.90
21033;DHT22;10675;47.976;7.824;2022-10-31T05:01:20;11.10;99.90
21033;DHT22;10675;47.976;7.824;2022-10-31T05:03:46;11.10;99.90
21033;DHT22;10675;47.976;7.824;2022-10-31T05:06:12;11.20;99.90
21033;DHT22;10675;47.976;7.824;2022-10-31T05:08:37;11.20;99.90
21033;DHT22;10675;47.976;7.824;2022-10-31T05:11:04;11.20;99.90
21033;DHT22;10675;47.976;7.824;2022-10-31T05:13:30;11.20;99.90
21033;DHT22;10675;47.976;7.824;2022-10-31T05:15:56;11.30;99.90
21033;DHT22;10675;47.976;7.824;2022-10-31T05:18:21;11.20;99.90
21033;DHT22;10675;47.976;7.824;2022-10-31T05:20:47;11.20;99.90
21033;DHT22;10675;47.976;7.824;2022-10-31T05:23:13;11.20;99.90
21033;DHT22;10675;47.976;7.824;2022-10-31T05:25:39;11.20;99.90
21033;DHT22;10675;47.976;7.824;2022-10-31T05:28:05;11.10;99.90
21033;DHT22;10675;47.976;7.824;2022-10-31T05:30:31;11.00;99.90
21033;DHT22;10675;47.976;7.824;2022-10-31T05:32:57;11.10;99.90
21033;DHT22;10675;47.976;7.824;2022-10-31T05:35:29;11.00;99.90
21033;DHT22;10675;47.976;7.824;2022-10-31T05:37:55;11.00;99.90
21033;DHT22;10675;47.976;7.824;2022-10-31T05:40:23;11.10;99.90
21033;DHT22;10675;47.976;7.824;2022-10-31T05:42:51;11.10;99.90
21033;DHT22;10675;47.976;7.824;2022-10-31T05:45:17;11.10;99.90
21033;DHT22;10675;47.976;7.824;2022-10-31T05:47:54;11.10;99.90
21033;DHT22;10675;47.976;7.824;2022-10-31T05:50:21;11.10;99.90
21033;DHT22;10675;47.976;7.824;2022-10-31T05:52:53;11.10;99.90
21033;DHT22;10675;47.976;7.824;2022-10-31T05:55:19;11.00;99.90
21033;DHT22;10675;47.976;7.824;2022-10-31T05:57:44;11.00;99.90
21033;DHT22;10675;47.976;7.824;2022-10-31T06:00:10;10.90;99.90
21033;DHT22;10675;47.976;7.824;2022-10-31T06:02:36;11.00;99.90
21033;DHT22;10675;47.976;7.824;2022-10-31T06:05:02;11.00;99.90
21033;DHT22;10675;47.976;7.824;2022-10-31T06:07:32;10.90;99.90
21033;DHT22;10675;47.976;7.824;2022-10-31T06:09:58;10.80;99.90
21033;DHT22;10675;47.976;7.824;2022-10-31T06:12:23;10.90;99.90
21033;DHT22;10675;47.976;7.824;2022-10-31T06:14:49;10.90;99.90
21033;DHT22;10675;47.976;7.824;2022-10-31T06:17:15;11.00;99.90
21033;DHT22;10675;47.976;7.824;2022-10-31T06:19:40;10.90;99.90
21033;DHT22;10675;47.976;7.824;2022-10-31T06:22:06;10.90;99.90
21033;DHT22;10675;47.976;7.824;2022-10-31T06:24:31;11.00;99.90
21033;DHT22;10675;47.976;7.824;2022-10-31T06:26:57;11.00;99.90
21033;DHT22;10675;47.976;7.824;2022-10-31T06:29:22;11.10;99.90
21033;DHT22;10675;47.976;7.824;2022-10-31T06:31:51;11.10;99.90
21033;DHT22;10675;47.976;7.824;2022-10-31T06:34:16;11.20;99.90
21033;DHT22;10675;47.976;7.824;2022-10-31T06:36:42;11.30;99.90
21033;DHT22;10675;47.976;7.824;2022-10-31T06:39:07;11.30;99.90
21033;DHT22;10675;47.976;7.824;2022-10-31T06:41:33;11.40;99.90
21033;DHT22;10675;47.976;7.824;2022-10-31T06:43:58;11.40;99.90
21033;DHT22;10675;47.976;7.824;2022-10-31T06:46:24;11.40;99.90
21033;DHT22;10675;47.976;7.824;2022-10-31T06:48:49;11.50;99.90
21033;DHT22;10675;47.976;7.824;2022-10-31T06:51:15;11.60;99.90
21033;DHT22;10675;47.976;7.824;2022-10-31T06:53:41;11.50;99.90
21033;DHT22;10675;47.976;7.824;2022-10-31T06:56:06;11.50;99.90
21033;DHT22;10675;47.976;7.824;2022-10-31T06:58:32;11.50;99.90
21033;DHT22;10675;47.976;7.824;2022-10-31T07:01:00;11.50;99.90
21033;DHT22;10675;47.976;7.824;2022-10-31T07:03:26;11.60;99.90
21033;DHT22;10675;47.976;7.824;2022-10-31T07:05:51;11.50;99.90
21033;DHT22;10675;47.976;7.824;2022-10-31T07:08:17;11.60;99.90
21033;DHT22;10675;47.976;7.824;2022-10-31T07:10:43;11.70;99.90
21033;DHT22;10675;47.976;7.824;2022-10-31T07:13:15;11.80;99.90
21033;DHT22;10675;47.976;7.824;2022-10-31T07:15:42;11.90;99.90
21033;DHT22;10675;47.976;7.824;2022-10-31T07:18:10;11.90;99.90
21033;DHT22;10675;47.976;7.824;2022-10-31T07:20:35;12.00;99.90
21033;DHT22;10675;47.976;7.824;2022-10-31T07:23:01;12.00;99.90
21033;DHT22;10675;47.976;7.824;2022-10-31T07:25:27;12.10;99.90
21033;DHT22;10675;47.976;7.824;2022-10-31T07:27:52;12.10;99.90
21033;DHT22;10675;47.976;7.824;2022-10-31T07:30:18;12.10;99.90
21033;DHT22;10675;47.976;7.824;2022-10-31T07:32:50;12.10;99.90
21033;DHT22;10675;47.976;7.824;2022-10-31T07:35:21;12.20;99.90
21033;DHT22;10675;47.976;7.824;2022-10-31T07:37:47;12.20;99.90
21033;DHT22;10675;47.976;7.824;2022-10-31T07:40:13;12.30;99.90
21033;DHT22;10675;47.976;7.824;2022-10-31T07:42:44;12.40;99.90
21033;DHT22;10675;47.976;7.824;2022-10-31T07:45:13;12.50;99.90
21033;DHT22;10675;47.976;7.824;2022-10-31T07:47:44;12.20;99.90
21033;DHT22;10675;47.976;7.824;2022-10-31T07:50:13;12.70;99.90
21033;DHT22;10675;47.976;7.824;2022-10-31T07:52:39;12.80;99.90
21033;DHT22;10675;47.976;7.824;2022-10-31T07:55:05;12.90;99.90
21033;DHT22;10675;47.976;7.824;2022-10-31T07:57:31;13.00;99.90
21033;DHT22;10675;47.976;7.824;2022-10-31T07:59:56;13.10;99.90
21033;DHT22;10675;47.976;7.824;2022-10-31T08:02:22;13.20;99.90
21033;DHT22;10675;47.976;7.824;2022-10-31T08:04:48;13.20;99.90
21033;DHT22;10675;47.976;7.824;2022-10-31T08:07:14;13.40;99.90
21033;DHT22;10675;47.976;7.824;2022-10-31T08:09:40;13.50;99.90
21033;DHT22;10675;47.976;7.824;2022-10-31T08:12:05;13.60;99.90
21033;DHT22;10675;47.976;7.824;2022-10-31T08:14:31;13.70;99.90
21033;DHT22;10675;47.976;7.824;2022-10-31T08:16:56;13.80;99.90
21033;DHT22;10675;47.976;7.824;2022-10-31T08:19:22;13.90;99.90
21033;DHT22;10675;47.976;7.824;2022-10-31T08:21:50;13.90;99.90
21033;DHT22;10675;47.976;7.824;2022-10-31T08:24:16;14.00;99.90
21033;DHT22;10675;47.976;7.824;2022-10-31T08:26:42;14.10;99.90
21033;DHT22;10675;47.976;7.824;2022-10-31T08:29:07;14.10;99.90
21033;DHT22;10675;47.976;7.824;2022-10-31T08:31:33;14.10;99.90
21033;DHT22;10675;47.976;7.824;2022-10-31T08:33:59;14.20;99.90
21033;DHT22;10675;47.976;7.824;2022-10-31T08:36:24;14.30;99.90
21033;DHT22;10675;47.976;7.824;2022-10-31T08:38:50;14.30;99.90
21033;DHT22;10675;47.976;7.824;2022-10-31T08:41:15;14.40;99.90
21033;DHT22;10675;47.976;7.824;2022-10-31T08:43:41;14.40;99.90
21033;DHT22;10675;47.976;7.824;2022-10-31T08:46:06;14.50;99.90
21033;DHT22;10675;47.976;7.824;2022-10-31T08:48:32;14.60;99.90
21033;DHT22;10675;47.976;7.824;2022-10-31T08:50:59;14.60;99.90
21033;DHT22;10675;47.976;7.824;2022-10-31T08:53:24;14.60;99.90
21033;DHT22;10675;47.976;7.824;2022-10-31T08:55:50;14.70;99.90
21033;DHT22;10675;47.976;7.824;2022-10-31T08:58:18;14.70;99.90
21033;DHT22;10675;47.976;7.824;2022-10-31T09:00:45;14.80;99.90
21033;DHT22;10675;47.976;7.824;2022-10-31T09:03:24;14.90;99.90
21033;DHT22;10675;47.976;7.824;2022-10-31T09:05:53;15.00;99.90
21033;DHT22;10675;47.976;7.824;2022-10-31T09:08:19;15.00;99.90
21033;DHT22;10675;47.976;7.824;2022-10-31T09:10:45;15.00;99.90
21033;DHT22;10675;47.976;7.824;2022-10-31T09:13:13;15.10;99.90
21033;DHT22;10675;47.976;7.824;2022-10-31T09:15:41;15.20;99.90
21033;DHT22;10675;47.976;7.824;2022-10-31T09:18:08;15.20;99.90
21033;DHT22;10675;47.976;7.824;2022-10-31T09:20:35;15.30;99.90
21033;DHT22;10675;47.976;7.824;2022-10-31T09:23:21;15.30;99.90
21033;DHT22;10675;47.976;7.824;2022-10-31T09:25:49;15.40;99.90
21033;DHT22;10675;47.976;7.824;2022-10-31T09:28:17;15.50;99.90
21033;DHT22;10675;47.976;7.824;2022-10-31T09:30:46;15.60;99.90
21033;DHT22;10675;47.976;7.824;2022-10-31T09:33:12;15.70;99.90
21033;DHT22;10675;47.976;7.824;2022-10-31T09:35:39;15.70;99.90
21033;DHT22;10675;47.976;7.824;2022-10-31T09:38:10;15.70;99.90
21033;DHT22;10675;47.976;7.824;2022-10-31T09:40:47;15.70;99.90
21033;DHT22;10675;47.976;7.824;2022-10-31T09:51:23;15.90;99.90
21033;DHT22;10675;47.976;7.824;2022-10-31T09:54:00;15.80;99.90
21033;DHT22;10675;47.976;7.824;2022-10-31T09:56:26;16.00;99.90
21033;DHT22;10675;47.976;7.824;2022-10-31T09:58:58;16.40;99.90
21033;DHT22;10675;47.976;7.824;2022-10-31T10:01:37;16.50;99.90
21033;DHT22;10675;47.976;7.824;2022-10-31T10:06:45;17.00;99.90
21033;DHT22;10675;47.976;7.824;2022-10-31T10:09:12;16.60;99.90
21033;DHT22;10675;47.976;7.824;2022-10-31T10:11:45;16.40;99.90
21033;DHT22;10675;47.976;7.824;2022-10-31T10:22:35;16.50;99.90
21033;DHT22;10675;47.976;7.824;2022-10-31T10:25:21;16.40;99.90
21033;DHT22;10675;47.976;7.824;2022-10-31T10:28:08;16.60;99.90
21033;DHT22;10675;47.976;7.824;2022-10-31T10:30:50;16.50;99.90
21033;DHT22;10675;47.976;7.824;2022-10-31T10:33:31;16.40;99.90
21033;DHT22;10675;47.976;7.824;2022-10-31T10:36:05;16.40;99.90
21033;DHT22;10675;47.976;7.824;2022-10-31T10:41:21;16.40;99.90
21033;DHT22;10675;47.976;7.824;2022-10-31T10:43:51;16.50;99.90
21033;DHT22;10675;47.976;7.824;2022-10-31T10:46:40;16.60;99.90
21033;DHT22;10675;47.976;7.824;2022-10-31T10:49:38;16.50;99.90
21033;DHT22;10675;47.976;7.824;2022-10-31T10:52:32;16.40;99.90
21033;DHT22;10675;47.976;7.824;2022-10-31T10:55:05;16.30;99.90
21033;DHT22;10675;47.976;7.824;2022-10-31T11:00:23;16.30;99.90
21033;DHT22;10675;47.976;7.824;2022-10-31T11:02:49;16.60;99.90
21033;DHT22;10675;47.976;7.824;2022-10-31T11:05:24;16.40;99.90
21033;DHT22;10675;47.976;7.824;2022-10-31T11:07:50;17.00;99.90
21033;DHT22;10675;47.976;7.824;2022-10-31T11:10:16;17.30;99.90
21033;DHT22;10675;47.976;7.824;2022-10-31T11:12:44;16.90;99.90
21033;DHT22;10675;47.976;7.824;2022-10-31T11:15:23;17.40;99.90
21033;DHT22;10675;47.976;7.824;2022-10-31T11:17:52;17.40;99.90
21033;DHT22;10675;47.976;7.824;2022-10-31T11:22:45;18.20;99.90
21033;DHT22;10675;47.976;7.824;2022-10-31T11:25:25;18.10;99.90
21033;DHT22;10675;47.976;7.824;2022-10-31T11:28:07;18.20;99.90
21033;DHT22;10675;47.976;7.824;2022-10-31T11:30:55;18.90;99.90
21033;DHT22;10675;47.976;7.824;2022-10-31T11:35:56;19.10;99.90
21033;DHT22;10675;47.976;7.824;2022-10-31T11:38:25;19.00;99.90
21033;DHT22;10675;47.976;7.824;2022-10-31T11:41:11;18.90;99.90
21033;DHT22;10675;47.976;7.824;2022-10-31T11:43:39;19.60;99.90
21033;DHT22;10675;47.976;7.824;2022-10-31T11:46:10;19.80;99.90
21033;DHT22;10675;47.976;7.824;2022-10-31T11:48:36;19.20;99.90
21033;DHT22;10675;47.976;7.824;2022-10-31T11:51:02;18.50;99.90
21033;DHT22;10675;47.976;7.824;2022-10-31T11:53:32;18.90;99.90
21033;DHT22;10675;47.976;7.824;2022-10-31T11:56:15;19.30;99.90
21033;DHT22;10675;47.976;7.824;2022-10-31T11:58:41;19.60;99.90
21033;DHT22;10675;47.976;7.824;2022-10-31T12:01:26;19.90;99.90
21033;DHT22;10675;47.976;7.824;2022-10-31T12:04:07;19.70;99.90
21033;DHT22;10675;47.976;7.824;2022-10-31T12:06:38;19.30;99.90
21033;DHT22;10675;47.976;7.824;2022-10-31T12:09:24;19.20;99.90
21033;DHT22;10675;47.976;7.824;2022-10-31T12:18:02;19.50;99.90
21033;DHT22;10675;47.976;7.824;2022-10-31T12:20:41;19.50;99.90
21033;DHT22;10675;47.976;7.824;2022-10-31T12:42:39;20.00;99.90
21033;DHT22;10675;47.976;7.824;2022-10-31T12:50:39;19.80;99.90
21033;DHT22;10675;47.976;7.824;2022-10-31T12:58:33;19.80;99.90
21033;DHT22;10675;47.976;7.824;2022-10-31T13:01:12;19.90;99.90
21033;DHT22;10675;47.976;7.824;2022-10-31T13:03:44;19.90;99.90
21033;DHT22;10675;47.976;7.824;2022-10-31T13:06:16;19.80;99.90
21033;DHT22;10675;47.976;7.824;2022-10-31T13:09:06;19.80;99.90
21033;DHT22;10675;47.976;7.824;2022-10-31T13:11:38;19.70;99.90
21033;DHT22;10675;47.976;7.824;2022-10-31T13:14:11;19.40;99.90
21033;DHT22;10675;47.976;7.824;2022-10-31T13:16:45;19.30;99.90
21033;DHT22;10675;47.976;7.824;2022-10-31T13:27:28;19.30;99.90
21033;DHT22;10675;47.976;7.824;2022-10-31T13:32:41;19.70;99.90
21033;DHT22;10675;47.976;7.824;2022-10-31T13:35:26;19.70;99.90
21033;DHT22;10675;47.976;7.824;2022-10-31T13:41:16;20.00;99.90
21033;DHT22;10675;47.976;7.824;2022-10-31T13:46:23;20.00;99.90
21033;DHT22;10675;47.976;7.824;2022-10-31T13:48:49;19.90;99.90
21033;DHT22;10675;47.976;7.824;2022-10-31T13:51:28;19.80;99.90
21033;DHT22;10675;47.976;7.824;2022-10-31T13:59:23;19.70;99.90
21033;DHT22;10675;47.976;7.824;2022-10-31T14:01:55;19.70;99.90
21033;DHT22;10675;47.976;7.824;2022-10-31T14:04:35;19.60;99.90
21033;DHT22;10675;47.976;7.824;2022-10-31T14:07:14;19.30;99.90
21033;DHT22;10675;47.976;7.824;2022-10-31T14:09:56;19.40;99.90
21033;DHT22;10675;47.976;7.824;2022-10-31T14:15:19;19.70;99.90
21033;DHT22;10675;47.976;7.824;2022-10-31T14:18:06;19.60;99.90
21033;DHT22;10675;47.976;7.824;2022-10-31T14:20:42;19.90;99.90
21033;DHT22;10675;47.976;7.824;2022-10-31T14:23:28;19.80;99.90
21033;DHT22;10675;47.976;7.824;2022-10-31T14:28:56;19.60;99.90
21033;DHT22;10675;47.976;7.824;2022-10-31T14:31:34;19.50;99.90
21033;DHT22;10675;47.976;7.824;2022-10-31T14:34:28;19.50;99.90
21033;DHT22;10675;47.976;7.824;2022-10-31T14:37:12;19.60;99.90
21033;DHT22;10675;47.976;7.824;2022-10-31T14:43:00;20.00;99.90
21033;DHT22;10675;47.976;7.824;2022-10-31T14:48:36;19.90;99.90
21033;DHT22;10675;47.976;7.824;2022-10-31T14:50:59;20.10;99.90
21033;DHT22;10675;47.976;7.824;2022-10-31T14:55:53;19.50;99.90
21033;DHT22;10675;47.976;7.824;2022-10-31T14:58:22;19.30;99.90
21033;DHT22;10675;47.976;7.824;2022-10-31T15:00:53;19.10;99.90
21033;DHT22;10675;47.976;7.824;2022-10-31T15:03:26;18.90;99.90
21033;DHT22;10675;47.976;7.824;2022-10-31T15:05:55;19.10;99.90
21033;DHT22;10675;47.976;7.824;2022-10-31T15:08:32;19.20;99.90
21033;DHT22;10675;47.976;7.824;2022-10-31T15:10:58;19.30;99.90
21033;DHT22;10675;47.976;7.824;2022-10-31T15:13:23;19.20;99.90
21033;DHT22;10675;47.976;7.824;2022-10-31T15:15:52;19.10;99.90
21033;DHT22;10675;47.976;7.824;2022-10-31T15:18:22;19.00;99.90
21033;DHT22;10675;47.976;7.824;2022-10-31T15:20:49;18.80;99.90
21033;DHT22;10675;47.976;7.824;2022-10-31T15:23:27;18.60;99.90
21033;DHT22;10675;47.976;7.824;2022-10-31T15:26:04;18.50;99.90
21033;DHT22;10675;47.976;7.824;2022-10-31T15:28:30;19.00;99.90
21033;DHT22;10675;47.976;7.824;2022-10-31T15:30:58;18.90;99.90
21033;DHT22;10675;47.976;7.824;2022-10-31T15:33:39;18.50;99.90
21033;DHT22;10675;47.976;7.824;2022-10-31T15:36:05;18.20;99.90
21033;DHT22;10675;47.976;7.824;2022-10-31T15:38:31;18.00;99.90
21033;DHT22;10675;47.976;7.824;2022-10-31T15:41:03;18.00;99.90
21033;DHT22;10675;47.976;7.824;2022-10-31T15:43:35;17.90;99.90
21033;DHT22;10675;47.976;7.824;2022-10-31T15:46:03;17.70;99.90
21033;DHT22;10675;47.976;7.824;2022-10-31T15:48:29;17.60;99.90
21033;DHT22;10675;47.976;7.824;2022-10-31T15:50:58;17.40;99.90
21033;DHT22;10675;47.976;7.824;2022-10-31T15:53:35;17.40;99.90
21033;DHT22;10675;47.976;7.824;2022-10-31T15:56:06;17.20;99.90
21033;DHT22;10675;47.976;7.824;2022-10-31T15:58:39;17.00;99.90
21033;DHT22;10675;47.976;7.824;2022-10-31T16:01:23;17.10;99.90
21033;DHT22;10675;47.976;7.824;2022-10-31T16:04:22;16.90;99.90
21033;DHT22;10675;47.976;7.824;2022-10-31T16:07:14;16.50;99.90
21033;DHT22;10675;47.976;7.824;2022-10-31T16:09:51;16.50;99.90
21033;DHT22;10675;47.976;7.824;2022-10-31T16:12:17;16.40;99.90
21033;DHT22;10675;47.976;7.824;2022-10-31T16:14:42;16.40;99.90
21033;DHT22;10675;47.976;7.824;2022-10-31T16:17:13;16.30;99.90
21033;DHT22;10675;47.976;7.824;2022-10-31T16:19:51;16.20;99.90
21033;DHT22;10675;47.976;7.824;2022-10-31T16:22:35;15.90;99.90
21033;DHT22;10675;47.976;7.824;2022-10-31T16:25:17;15.90;99.90
21033;DHT22;10675;47.976;7.824;2022-10-31T16:27:50;15.80;99.90
21033;DHT22;10675;47.976;7.824;2022-10-31T16:30:41;15.80;99.90
21033;DHT22;10675;47.976;7.824;2022-10-31T16:36:00;15.80;99.90
21033;DHT22;10675;47.976;7.824;2022-10-31T16:38:27;15.80;99.90
21033;DHT22;10675;47.976;7.824;2022-10-31T16:40:53;15.70;99.90
21033;DHT22;10675;47.976;7.824;2022-10-31T16:43:20;15.70;99.90
21033;DHT22;10675;47.976;7.824;2022-10-31T16:45:50;15.70;99.90
21033;DHT22;10675;47.976;7.824;2022-10-31T16:48:20;15.60;99.90
21033;DHT22;10675;47.976;7.824;2022-10-31T16:50:48;15.70;99.90
21033;DHT22;10675;47.976;7.824;2022-10-31T16:53:15;15.70;99.90
21033;DHT22;10675;47.976;7.824;2022-10-31T16:55:54;15.50;99.90
21033;DHT22;10675;47.976;7.824;2022-10-31T16:58:24;15.40;99.90
21033;DHT22;10675;47.976;7.824;2022-10-31T17:00:51;15.40;99.90
21033;DHT22;10675;47.976;7.824;2022-10-31T17:03:17;15.40;99.90
21033;DHT22;10675;47.976;7.824;2022-10-31T17:05:42;15.50;99.90
21033;DHT22;10675;47.976;7.824;2022-10-31T17:08:08;15.80;99.90
21033;DHT22;10675;47.976;7.824;2022-10-31T17:10:34;15.60;99.90
21033;DHT22;10675;47.976;7.824;2022-10-31T17:13:01;15.80;99.90
21033;DHT22;10675;47.976;7.824;2022-10-31T17:15:28;15.80;99.90
21033;DHT22;10675;47.976;7.824;2022-10-31T17:17:56;15.80;99.90
21033;DHT22;10675;47.976;7.824;2022-10-31T17:20:25;16.10;99.90
21033;DHT22;10675;47.976;7.824;2022-10-31T17:22:51;15.70;99.90
21033;DHT22;10675;47.976;7.824;2022-10-31T17:25:20;16.10;99.90
21033;DHT22;10675;47.976;7.824;2022-10-31T17:27:47;15.90;99.90
21033;DHT22;10675;47.976;7.824;2022-10-31T17:30:14;16.00;99.90
21033;DHT22;10675;47.976;7.824;2022-10-31T17:32:41;15.90;99.90
21033;DHT22;10675;47.976;7.824;2022-10-31T17:35:08;16.60;99.90
21033;DHT22;10675;47.976;7.824;2022-10-31T17:37:33;15.60;99.90
21033;DHT22;10675;47.976;7.824;2022-10-31T17:39:59;15.50;99.90
21033;DHT22;10675;47.976;7.824;2022-10-31T17:42:24;15.60;99.90
21033;DHT22;10675;47.976;7.824;2022-10-31T17:44:50;16.00;99.90
21033;DHT22;10675;47.976;7.824;2022-10-31T17:47:15;15.80;99.90
21033;DHT22;10675;47.976;7.824;2022-10-31T17:49:41;15.60;99.90
21033;DHT22;10675;47.976;7.824;2022-10-31T17:52:06;15.40;99.90
21033;DHT22;10675;47.976;7.824;2022-10-31T17:54:32;15.20;99.90
21033;DHT22;10675;47.976;7.824;2022-10-31T17:56:57;15.10;99.90
21033;DHT22;10675;47.976;7.824;2022-10-31T17:59:23;15.00;99.90
21033;DHT22;10675;47.976;7.824;2022-10-31T18:01:49;14.90;99.90
21033;DHT22;10675;47.976;7.824;2022-10-31T18:04:15;14.90;99.90
21033;DHT22;10675;47.976;7.824;2022-10-31T18:06:40;14.80;99.90